Time;durP1;ratioP1;P1;durP2;ratioP2;P2;SDS_P1;SDS_P2;PMS_P1;PMS_P2;Temp;Humidity;BMP_temperature;BMP_pressure;BME280_temperature;BME280_humidity;BME280_pressure;Samples;Min_cycle;Max_cycle;Signal;HPM_P1;HPM_P2
2023/05/24 00:00:11;;;;;;;5.70;3.07;;;20.10;55.00;;;;;;5070648;28;20205;-72
2023/05/24 00:02:41;;;;;;;5.67;2.80;;;20.10;55.00;;;;;;5070140;28;20278;-72
2023/05/24 00:05:09;;;;;;;5.53;3.10;;;20.10;55.10;;;;;;5070472;28;20213;-71
2023/05/24 00:07:36;;;;;;;4.67;3.00;;;20.00;55.20;;;;;;5070825;28;20593;-72
2023/05/24 00:10:03;;;;;;;4.40;2.80;;;20.00;55.00;;;;;;5018627;28;20209;-73
2023/05/24 00:12:30;;;;;;;5.60;3.20;;;20.00;54.90;;;;;;5070234;28;20203;-71
2023/05/24 00:14:57;;;;;;;4.13;2.70;;;20.00;54.90;;;;;;5070747;28;20235;-72
2023/05/24 00:17:24;;;;;;;5.80;2.90;;;20.00;54.80;;;;;;5070299;28;20927;-73
2023/05/24 00:19:53;;;;;;;4.43;3.27;;;20.00;54.80;;;;;;5070690;28;20211;-72
2023/05/24 00:22:20;;;;;;;6.03;3.03;;;19.90;54.70;;;;;;5070168;28;20478;-72
2023/05/24 00:24:47;;;;;;;5.97;3.23;;;20.00;54.80;;;;;;5069958;28;20232;-71
2023/05/24 00:27:14;;;;;;;7.63;3.50;;;19.90;54.70;;;;;;5070155;28;20267;-72
2023/05/24 00:29:41;;;;;;;4.50;3.10;;;19.90;54.70;;;;;;5070626;28;20213;-72
2023/05/24 00:32:07;;;;;;;5.43;3.43;;;19.90;54.70;;;;;;5069758;28;20197;-72
2023/05/24 00:34:34;;;;;;;5.13;3.27;;;19.90;54.50;;;;;;5065436;28;20230;-72
2023/05/24 00:37:02;;;;;;;5.63;3.13;;;19.90;54.50;;;;;;5050136;28;20908;-72
2023/05/24 00:39:29;;;;;;;5.93;2.90;;;19.80;54.50;;;;;;5068052;28;20516;-72
2023/05/24 00:41:56;;;;;;;5.90;3.00;;;19.80;54.60;;;;;;5069740;28;20201;-72
2023/05/24 00:44:23;;;;;;;5.00;3.00;;;19.80;54.70;;;;;;5018165;28;20308;-73
2023/05/24 00:46:50;;;;;;;6.50;3.23;;;19.80;54.90;;;;;;5069982;28;20209;-72
2023/05/24 00:49:17;;;;;;;4.03;2.80;;;19.70;55.10;;;;;;5074105;28;20204;-72
2023/05/24 00:51:44;;;;;;;5.57;2.73;;;19.70;55.00;;;;;;5073727;28;20216;-72
2023/05/24 00:54:13;;;;;;;6.37;3.00;;;19.70;55.10;;;;;;5073802;28;20221;-72
2023/05/24 00:56:41;;;;;;;5.47;3.10;;;19.60;55.10;;;;;;5073589;28;20247;-73
2023/05/24 00:59:08;;;;;;;6.83;3.13;;;19.60;55.20;;;;;;5073667;28;20451;-72
2023/05/24 01:01:36;;;;;;;7.03;3.73;;;19.50;55.20;;;;;;5073233;28;20759;-72
2023/05/24 01:04:04;;;;;;;3.90;3.07;;;19.50;55.40;;;;;;5073451;28;20329;-72
2023/05/24 01:06:35;;;;;;;5.90;3.30;;;19.40;55.60;;;;;;5002494;28;20237;-73
2023/05/24 01:09:11;;;;;;;5.37;3.40;;;19.40;55.70;;;;;;5068830;28;20534;-71
2023/05/24 01:11:53;;;;;;;3.83;2.83;;;19.30;55.90;;;;;;5073020;28;20273;-71
2023/05/24 01:14:26;;;;;;;4.40;3.17;;;19.20;55.90;;;;;;5073955;28;20226;-72
2023/05/24 01:17:00;;;;;;;4.20;2.90;;;19.20;56.00;;;;;;5055803;28;20446;-73
2023/05/24 01:19:52;;;;;;;5.27;3.40;;;19.10;56.30;;;;;;5073587;28;20470;-73
2023/05/24 01:22:55;;;;;;;6.50;3.57;;;19.10;56.50;;;;;;5057840;28;20452;-72
2023/05/24 01:25:37;;;;;;;8.93;3.80;;;19.10;56.60;;;;;;5072663;28;20335;-72
2023/05/24 01:28:08;;;;;;;6.17;3.10;;;19.00;56.40;;;;;;5073258;28;20856;-71
2023/05/24 01:30:35;;;;;;;6.23;3.33;;;19.00;56.60;;;;;;5073421;28;20453;-72
2023/05/24 01:33:03;;;;;;;5.00;3.20;;;19.00;56.70;;;;;;5072779;28;20447;-72
2023/05/24 01:35:29;;;;;;;5.40;3.70;;;19.00;56.70;;;;;;5060621;28;20206;-72
2023/05/24 01:37:56;;;;;;;6.97;3.27;;;19.00;56.70;;;;;;5068633;28;20207;-72
2023/05/24 01:40:24;;;;;;;6.37;3.53;;;18.90;56.60;;;;;;5072999;28;20802;-72
2023/05/24 01:42:59;;;;;;;4.73;3.03;;;18.90;56.60;;;;;;5072533;28;21103;-72
2023/05/24 01:45:33;;;;;;;5.57;3.20;;;18.90;56.70;;;;;;5072845;28;20981;-72
2023/05/24 01:48:10;;;;;;;5.57;3.37;;;18.90;56.70;;;;;;5073093;28;20448;-72
2023/05/24 01:50:42;;;;;;;5.70;3.20;;;18.80;56.80;;;;;;5072937;28;20454;-72
2023/05/24 01:53:13;;;;;;;5.47;3.40;;;18.80;56.70;;;;;;5072550;28;20830;-72
2023/05/24 01:55:41;;;;;;;6.30;3.37;;;18.80;57.00;;;;;;5072943;28;20215;-71
2023/05/24 01:58:10;;;;;;;6.73;3.77;;;18.80;57.20;;;;;;5071811;28;20475;-71
2023/05/24 02:00:40;;;;;;;5.93;3.50;;;18.70;57.10;;;;;;5072765;28;20205;-72
2023/05/24 02:03:07;;;;;;;5.87;3.60;;;18.70;57.30;;;;;;5072191;28;20589;-71
2023/05/24 02:05:34;;;;;;;7.00;3.20;;;18.70;57.40;;;;;;5072659;28;20237;-72
2023/05/24 02:08:00;;;;;;;7.47;3.53;;;18.70;57.50;;;;;;5072480;28;20534;-73
2023/05/24 02:10:27;;;;;;;6.33;3.20;;;18.60;57.60;;;;;;5072403;28;20208;-71
2023/05/24 02:12:54;;;;;;;8.97;3.40;;;18.60;57.70;;;;;;5072209;28;20451;-71
2023/05/24 02:15:21;;;;;;;7.40;3.80;;;18.60;58.40;;;;;;5072389;28;20822;-72
2023/05/24 02:17:49;;;;;;;9.80;3.80;;;18.60;57.80;;;;;;5072180;28;20473;-72
2023/05/24 02:20:16;;;;;;;7.63;3.30;;;18.60;57.80;;;;;;5072218;28;20509;-72
2023/05/24 02:22:43;;;;;;;5.50;3.23;;;18.60;57.70;;;;;;5071427;28;20509;-72
2023/05/24 02:25:10;;;;;;;5.63;3.20;;;18.50;57.60;;;;;;5071799;28;20719;-72
2023/05/24 02:27:38;;;;;;;5.20;3.07;;;18.50;57.60;;;;;;5071881;28;20217;-72
2023/05/24 02:30:06;;;;;;;6.90;3.00;;;18.50;57.60;;;;;;5036096;28;20471;-71
2023/05/24 02:32:33;;;;;;;5.70;3.70;;;18.50;57.70;;;;;;5071889;28;20454;-73
2023/05/24 02:35:02;;;;;;;8.77;3.43;;;18.50;57.60;;;;;;5071909;28;20459;-72
2023/05/24 02:37:28;;;;;;;4.80;3.30;;;18.50;57.40;;;;;;5071819;28;20470;-72
2023/05/24 02:39:55;;;;;;;7.23;3.50;;;18.50;57.80;;;;;;5071752;28;20201;-72
2023/05/24 02:42:22;;;;;;;9.90;3.37;;;18.40;57.30;;;;;;5071400;28;20481;-71
2023/05/24 02:44:51;;;;;;;6.67;3.77;;;18.40;57.10;;;;;;5071710;28;20584;-72
2023/05/24 02:47:18;;;;;;;8.20;4.10;;;18.40;57.10;;;;;;5071963;28;20558;-73
2023/05/24 02:49:45;;;;;;;8.50;3.37;;;18.40;57.10;;;;;;5071722;28;20444;-72
2023/05/24 02:52:14;;;;;;;8.07;3.60;;;18.40;56.80;;;;;;5071020;28;20452;-72
2023/05/24 02:54:41;;;;;;;6.93;3.10;;;18.40;56.80;;;;;;5071916;28;20463;-72
2023/05/24 02:57:08;;;;;;;5.00;3.33;;;18.40;56.80;;;;;;5071514;28;20455;-72
2023/05/24 02:59:35;;;;;;;6.60;3.23;;;18.40;56.90;;;;;;5071286;28;20866;-72
2023/05/24 03:02:02;;;;;;;5.23;3.10;;;18.40;56.90;;;;;;5071128;28;20538;-73
2023/05/24 03:04:29;;;;;;;4.40;3.20;;;18.40;56.80;;;;;;5071466;28;20486;-72
2023/05/24 03:06:56;;;;;;;6.93;3.17;;;18.40;56.70;;;;;;5071292;28;20552;-73
2023/05/24 03:09:24;;;;;;;10.53;3.80;;;18.30;56.50;;;;;;5071111;28;20462;-72
2023/05/24 03:11:53;;;;;;;8.27;3.30;;;18.30;56.50;;;;;;5070542;28;20466;-72
2023/05/24 03:14:21;;;;;;;7.33;3.57;;;18.30;56.70;;;;;;5070865;28;21030;-73
2023/05/24 03:16:49;;;;;;;6.23;3.63;;;18.30;56.70;;;;;;5071344;28;20951;-72
2023/05/24 03:19:17;;;;;;;5.90;3.10;;;18.20;56.60;;;;;;5070810;28;20479;-72
2023/05/24 03:21:44;;;;;;;8.90;3.53;;;18.20;56.80;;;;;;5070410;28;20448;-72
2023/05/24 03:24:11;;;;;;;8.60;3.30;;;18.20;56.80;;;;;;5071193;28;20487;-72
2023/05/24 03:26:42;;;;;;;6.87;3.40;;;18.20;56.80;;;;;;5070372;28;20577;-72
2023/05/24 03:29:09;;;;;;;5.10;3.17;;;18.20;56.90;;;;;;5070705;28;20201;-72
2023/05/24 03:31:36;;;;;;;8.57;3.40;;;18.20;56.90;;;;;;5070878;28;20562;-72
2023/05/24 03:34:03;;;;;;;6.80;3.27;;;18.20;56.90;;;;;;5070334;28;20446;-72
2023/05/24 03:36:31;;;;;;;6.20;3.30;;;18.10;56.90;;;;;;5050926;28;20452;-73
2023/05/24 03:38:58;;;;;;;9.53;3.53;;;18.00;57.00;;;;;;5033319;28;20502;-73
2023/05/24 03:41:26;;;;;;;7.50;3.70;;;18.00;57.10;;;;;;5065523;28;20451;-72
2023/05/24 03:43:54;;;;;;;7.63;3.00;;;18.00;57.10;;;;;;5070612;28;20534;-71
2023/05/24 03:46:21;;;;;;;7.17;3.50;;;18.00;57.90;;;;;;5018567;28;20513;-72
2023/05/24 03:48:48;;;;;;;7.37;3.40;;;18.00;57.50;;;;;;5070725;28;20552;-72
2023/05/24 03:51:15;;;;;;;7.03;3.70;;;17.90;57.60;;;;;;5070403;28;20448;-72
2023/05/24 03:53:42;;;;;;;5.53;3.83;;;17.90;57.60;;;;;;5069341;28;20448;-72
2023/05/24 03:56:09;;;;;;;7.20;3.47;;;17.90;57.70;;;;;;5070490;28;20476;-72
2023/05/24 03:58:36;;;;;;;5.93;3.43;;;17.90;57.70;;;;;;5071020;28;20447;-72
2023/05/24 04:01:04;;;;;;;8.00;3.40;;;17.90;57.80;;;;;;5070345;28;21144;-71
2023/05/24 04:03:33;;;;;;;5.43;3.13;;;17.90;57.60;;;;;;5070504;28;20485;-71
2023/05/24 04:06:00;;;;;;;6.17;3.27;;;17.90;57.60;;;;;;5070675;28;20825;-71
2023/05/24 04:08:27;;;;;;;9.73;3.17;;;17.90;57.60;;;;;;5070417;28;20834;-72
2023/05/24 04:10:54;;;;;;;7.17;3.33;;;17.80;57.30;;;;;;5070300;28;20447;-71
2023/05/24 04:13:21;;;;;;;6.73;3.37;;;17.90;57.40;;;;;;5070474;28;20943;-73
2023/05/24 04:15:48;;;;;;;5.57;3.37;;;17.80;57.50;;;;;;5070600;28;20975;-72
2023/05/24 04:18:17;;;;;;;5.80;3.30;;;17.80;57.50;;;;;;5070419;28;20455;-73
2023/05/24 04:20:43;;;;;;;7.87;3.90;;;17.80;57.50;;;;;;5069691;28;20454;-73
2023/05/24 04:23:10;;;;;;;8.33;3.47;;;17.80;57.30;;;;;;5072963;28;20473;-71
2023/05/24 04:25:37;;;;;;;8.13;3.70;;;17.80;57.50;;;;;;5073989;28;20473;-72
2023/05/24 04:28:04;;;;;;;11.00;3.70;;;17.80;57.80;;;;;;5055644;28;20449;-72
2023/05/24 04:30:32;;;;;;;7.87;3.60;;;17.80;58.20;;;;;;5074244;28;20561;-72
2023/05/24 04:32:59;;;;;;;7.63;3.57;;;17.80;57.90;;;;;;5074385;28;20802;-72
2023/05/24 04:35:28;;;;;;;7.90;3.20;;;17.80;57.80;;;;;;5074054;28;20452;-70
2023/05/24 04:37:56;;;;;;;9.70;4.00;;;17.80;58.10;;;;;;5073537;28;20474;-69
2023/05/24 04:40:23;;;;;;;6.73;3.40;;;17.70;58.30;;;;;;5074142;28;20815;-71
2023/05/24 04:42:50;;;;;;;6.10;3.33;;;17.70;58.50;;;;;;5074093;28;20459;-72
2023/05/24 04:45:17;;;;;;;8.10;3.50;;;17.70;58.50;;;;;;5073979;28;20494;-72
2023/05/24 04:47:44;;;;;;;7.80;3.50;;;17.70;58.80;;;;;;5073842;28;20453;-72
2023/05/24 04:50:11;;;;;;;8.80;3.50;;;17.70;58.60;;;;;;5073763;28;20447;-72
2023/05/24 04:52:39;;;;;;;13.70;4.60;;;17.60;58.70;;;;;;5073574;28;20471;-72
2023/05/24 04:55:07;;;;;;;9.63;4.00;;;17.60;59.60;;;;;;5073455;28;20534;-71
2023/05/24 04:57:34;;;;;;;11.17;3.97;;;17.60;59.10;;;;;;5074062;28;20800;-72
2023/05/24 05:00:00;;;;;;;9.20;4.20;;;17.60;60.00;;;;;;5073650;28;20570;-72
2023/05/24 05:02:27;;;;;;;14.47;5.13;;;17.60;59.60;;;;;;5073772;28;20465;-72
2023/05/24 05:04:55;;;;;;;10.43;4.10;;;17.50;59.70;;;;;;5072963;28;20482;-72
2023/05/24 05:07:21;;;;;;;10.30;4.20;;;17.50;59.60;;;;;;5072943;28;21274;-73
2023/05/24 05:09:50;;;;;;;8.70;3.13;;;17.60;59.70;;;;;;5037903;28;20442;-72
2023/05/24 05:12:16;;;;;;;6.47;2.80;;;17.60;59.60;;;;;;5073436;28;20455;-72
2023/05/24 05:14:43;;;;;;;7.10;3.47;;;17.60;59.60;;;;;;5073724;28;20574;-72
2023/05/24 05:17:10;;;;;;;6.90;3.30;;;17.60;59.20;;;;;;5072828;28;20439;-72
2023/05/24 05:19:37;;;;;;;6.93;3.50;;;17.60;59.20;;;;;;5073092;28;20546;-72
2023/05/24 05:22:04;;;;;;;5.23;3.07;;;17.60;59.30;;;;;;5072830;28;20497;-73
2023/05/24 05:24:31;;;;;;;8.67;3.50;;;17.60;59.20;;;;;;5073104;28;20498;-72
2023/05/24 05:26:59;;;;;;;6.20;3.03;;;17.60;59.00;;;;;;5073108;28;20447;-72
2023/05/24 05:29:26;;;;;;;6.00;3.17;;;17.60;59.50;;;;;;5073391;28;20479;-72
2023/05/24 05:31:53;;;;;;;7.50;3.40;;;17.60;59.00;;;;;;5073179;28;20444;-72
2023/05/24 05:34:20;;;;;;;7.80;3.67;;;17.60;59.60;;;;;;5072356;28;20496;-72
2023/05/24 05:36:47;;;;;;;6.60;3.07;;;17.60;59.00;;;;;;5072877;28;20507;-73
2023/05/24 05:39:13;;;;;;;5.70;2.67;;;17.60;58.80;;;;;;5073264;28;21010;-72
2023/05/24 05:41:42;;;;;;;7.70;3.10;;;17.60;59.10;;;;;;5072991;28;20449;-72
2023/05/24 05:44:11;;;;;;;7.77;3.30;;;17.60;59.00;;;;;;5072710;28;20517;-72
2023/05/24 05:46:38;;;;;;;7.50;3.33;;;17.60;58.80;;;;;;5072999;28;20205;-72
2023/05/24 05:49:06;;;;;;;7.67;3.20;;;17.60;58.80;;;;;;5072653;28;21048;-71
2023/05/24 05:51:32;;;;;;;5.07;3.33;;;17.70;59.00;;;;;;5072602;28;20964;-73
2023/05/24 05:53:59;;;;;;;8.20;3.20;;;17.70;59.50;;;;;;5072537;28;20455;-72
2023/05/24 05:56:27;;;;;;;6.00;3.67;;;17.70;59.80;;;;;;5073068;28;20455;-72
2023/05/24 05:58:54;;;;;;;6.27;3.10;;;17.70;59.80;;;;;;5072821;28;20494;-73
2023/05/24 06:01:25;;;;;;;7.43;3.07;;;17.70;59.00;;;;;;5072193;28;20487;-72
2023/05/24 06:03:52;;;;;;;8.10;3.10;;;17.80;58.90;;;;;;5072362;28;20443;-72
2023/05/24 06:06:19;;;;;;;6.87;2.87;;;17.80;58.60;;;;;;5072572;28;20570;-72
2023/05/24 06:08:46;;;;;;;6.80;3.33;;;17.80;57.80;;;;;;5020471;28;20467;-72
2023/05/24 06:11:13;;;;;;;8.43;3.47;;;17.80;57.80;;;;;;5072391;28;20444;-72
2023/05/24 06:13:40;;;;;;;7.63;3.07;;;17.80;57.80;;;;;;5071806;28;20834;-72
2023/05/24 06:16:08;;;;;;;7.70;3.30;;;17.90;57.90;;;;;;5072602;28;20452;-73
2023/05/24 06:18:37;;;;;;;10.63;3.77;;;17.90;57.50;;;;;;5072443;28;20806;-73
2023/05/24 06:21:04;;;;;;;6.80;3.33;;;17.90;57.70;;;;;;5072029;28;20471;-73
2023/05/24 06:23:31;;;;;;;5.70;3.07;;;17.90;57.30;;;;;;5072014;28;20474;-73
2023/05/24 06:25:58;;;;;;;6.63;3.30;;;17.90;57.10;;;;;;5072187;28;20490;-72
2023/05/24 06:28:24;;;;;;;10.13;3.70;;;18.00;57.60;;;;;;5070227;28;20454;-73
2023/05/24 06:30:51;;;;;;;10.30;3.90;;;18.00;57.30;;;;;;5073417;28;20449;-72
2023/05/24 06:33:18;;;;;;;9.30;3.00;;;18.10;57.30;;;;;;5071626;28;20457;-72
2023/05/24 06:35:46;;;;;;;7.43;3.20;;;18.10;57.30;;;;;;5065262;28;20498;-72
2023/05/24 06:38:13;;;;;;;6.43;3.43;;;18.10;57.30;;;;;;5072341;28;20455;-72
2023/05/24 06:40:40;;;;;;;6.10;3.40;;;18.20;57.10;;;;;;5072266;28;20471;-73
2023/05/24 06:43:07;;;;;;;8.80;3.57;;;18.20;57.30;;;;;;5072505;28;20809;-73
2023/05/24 06:45:34;;;;;;;8.73;3.10;;;18.20;56.90;;;;;;5071664;28;20490;-73
2023/05/24 06:48:01;;;;;;;8.33;3.13;;;18.30;56.90;;;;;;5072248;28;20451;-71
2023/05/24 06:50:28;;;;;;;8.13;3.40;;;18.30;57.50;;;;;;5072760;28;20574;-72
2023/05/24 06:52:56;;;;;;;6.33;3.17;;;18.40;57.60;;;;;;5071537;28;20557;-72
2023/05/24 06:55:23;;;;;;;8.40;3.10;;;18.40;57.30;;;;;;5057255;28;20444;-72
2023/05/24 06:57:51;;;;;;;6.80;2.93;;;18.50;56.70;;;;;;5054984;28;20452;-72
2023/05/24 07:00:19;;;;;;;8.33;3.40;;;18.50;56.70;;;;;;5072560;28;20205;-71
2023/05/24 07:02:46;;;;;;;6.40;3.20;;;18.50;56.10;;;;;;5072106;28;20495;-74
2023/05/24 07:05:13;;;;;;;8.07;3.30;;;18.60;56.20;;;;;;5071907;28;20225;-72
2023/05/24 07:07:40;;;;;;;7.23;2.77;;;18.60;56.20;;;;;;5072580;28;20447;-72
2023/05/24 07:10:10;;;;;;;7.50;3.63;;;18.60;56.60;;;;;;5072361;28;20458;-73
2023/05/24 07:12:38;;;;;;;5.77;2.87;;;18.60;55.80;;;;;;5072049;28;20481;-72
2023/05/24 07:15:05;;;;;;;11.07;3.20;;;18.60;55.80;;;;;;5071783;28;20458;-72
2023/05/24 07:17:32;;;;;;;9.37;3.50;;;18.60;55.50;;;;;;5070830;28;20558;-72
2023/05/24 07:20:00;;;;;;;12.33;3.83;;;18.60;55.40;;;;;;5071090;28;20308;-71
2023/05/24 07:22:28;;;;;;;7.33;3.20;;;18.60;55.50;;;;;;5070858;28;20570;-73
2023/05/24 07:24:55;;;;;;;12.30;3.77;;;18.70;55.70;;;;;;5071139;28;20487;-73
2023/05/24 07:27:24;;;;;;;7.07;3.20;;;18.70;55.70;;;;;;5018873;28;20565;-72
2023/05/24 07:29:51;;;;;;;10.83;3.30;;;18.70;55.50;;;;;;5070593;28;20578;-74
2023/05/24 07:32:17;;;;;;;6.73;3.40;;;18.70;55.70;;;;;;5070853;28;20243;-73
2023/05/24 07:34:44;;;;;;;8.73;3.27;;;18.70;55.10;;;;;;5070797;28;20473;-73
2023/05/24 07:37:11;;;;;;;6.97;3.40;;;18.70;55.10;;;;;;5070932;28;20455;-73
2023/05/24 07:39:38;;;;;;;9.60;3.23;;;18.70;55.00;;;;;;5071604;28;20205;-73
2023/05/24 07:42:06;;;;;;;8.93;3.23;;;18.70;55.10;;;;;;5081488;28;20208;-73
2023/05/24 07:44:34;;;;;;;8.63;3.27;;;18.80;55.20;;;;;;5084857;28;20229;-72
2023/05/24 07:47:02;;;;;;;9.47;3.03;;;18.90;55.40;;;;;;5086407;28;20447;-73
2023/05/24 07:49:29;;;;;;;6.93;3.00;;;19.00;55.40;;;;;;5082292;28;20205;-73
2023/05/24 07:51:58;;;;;;;11.83;3.73;;;19.10;54.70;;;;;;5077568;28;20327;-73
2023/05/24 07:54:25;;;;;;;7.93;3.10;;;19.20;54.40;;;;;;5072306;28;20649;-73
2023/05/24 07:56:52;;;;;;;8.23;3.17;;;19.40;54.20;;;;;;5070474;28;20216;-73
2023/05/24 07:59:19;;;;;;;5.87;2.97;;;19.50;54.00;;;;;;5070541;28;21054;-73
2023/05/24 08:01:47;;;;;;;7.27;2.90;;;19.60;54.00;;;;;;5070569;28;20205;-73
2023/05/24 08:04:15;;;;;;;6.43;2.70;;;19.80;53.20;;;;;;5069885;28;20225;-73
2023/05/24 08:06:42;;;;;;;7.30;2.93;;;19.80;52.60;;;;;;5070361;28;20225;-73
2023/05/24 08:09:09;;;;;;;7.43;2.67;;;20.00;52.60;;;;;;5070515;28;20268;-72
2023/05/24 08:11:35;;;;;;;9.67;3.13;;;20.00;51.70;;;;;;5070763;28;20248;-72
2023/05/24 08:14:03;;;;;;;7.23;2.77;;;20.10;51.50;;;;;;5069928;28;20208;-73
2023/05/24 08:16:31;;;;;;;5.83;2.33;;;20.10;50.80;;;;;;5070250;28;20209;-72
2023/05/24 08:18:59;;;;;;;6.77;2.70;;;20.20;50.20;;;;;;5070551;28;20300;-73
2023/05/24 08:21:27;;;;;;;5.30;2.30;;;20.30;50.40;;;;;;5070488;28;20311;-72
2023/05/24 08:23:55;;;;;;;7.50;2.90;;;20.30;50.30;;;;;;5070057;28;20217;-73
2023/05/24 08:26:23;;;;;;;6.73;2.63;;;20.40;49.70;;;;;;5070414;28;20233;-73
2023/05/24 08:28:50;;;;;;;5.83;2.60;;;20.50;50.20;;;;;;5070166;28;20209;-73
2023/05/24 08:31:17;;;;;;;5.07;2.50;;;20.60;50.60;;;;;;5059235;28;20253;-73
2023/05/24 08:33:44;;;;;;;5.90;2.60;;;20.60;49.70;;;;;;5049979;28;20230;-72
2023/05/24 08:36:12;;;;;;;6.97;2.63;;;20.70;49.10;;;;;;5068746;28;20232;-74
2023/05/24 08:38:39;;;;;;;5.07;2.33;;;20.80;48.70;;;;;;5070208;28;20701;-74
2023/05/24 08:41:07;;;;;;;9.43;2.87;;;20.80;48.80;;;;;;5070411;28;20764;-74
2023/05/24 08:43:34;;;;;;;7.23;2.60;;;20.70;48.70;;;;;;5052069;28;20235;-74
2023/05/24 08:46:02;;;;;;;7.70;2.73;;;20.70;49.10;;;;;;5069914;28;20320;-72
2023/05/24 08:48:29;;;;;;;5.73;2.47;;;20.80;47.50;;;;;;5070534;28;20250;-73
2023/05/24 08:50:58;;;;;;;5.23;2.80;;;20.70;46.90;;;;;;5070234;28;20236;-72
2023/05/24 08:53:26;;;;;;;6.97;2.70;;;20.70;46.40;;;;;;5062171;28;20299;-74
2023/05/24 08:55:55;;;;;;;9.77;3.07;;;20.80;47.60;;;;;;5070150;28;20198;-72
2023/05/24 08:58:22;;;;;;;6.00;2.70;;;20.70;47.90;;;;;;5069971;28;20292;-73
2023/05/24 09:00:49;;;;;;;8.23;2.53;;;20.80;48.10;;;;;;5070276;28;20236;-73
2023/05/24 09:03:17;;;;;;;11.47;3.10;;;20.80;48.30;;;;;;5069818;28;20229;-72
2023/05/24 09:05:44;;;;;;;4.97;2.60;;;20.90;47.80;;;;;;5034080;28;20244;-72
2023/05/24 09:08:12;;;;;;;5.10;2.57;;;20.90;47.60;;;;;;5051645;28;20204;-72
2023/05/24 09:10:40;;;;;;;5.67;2.67;;;21.00;47.80;;;;;;5074615;28;20213;-73
2023/05/24 09:13:08;;;;;;;8.77;2.70;;;21.10;47.80;;;;;;5038704;28;20630;-72
2023/05/24 09:15:35;;;;;;;5.10;2.80;;;21.20;48.10;;;;;;5074338;28;20221;-73
2023/05/24 09:18:02;;;;;;;4.87;2.83;;;21.20;47.70;;;;;;5074607;28;20232;-73
2023/05/24 09:20:30;;;;;;;7.77;3.00;;;21.30;47.60;;;;;;5074489;28;20216;-73
2023/05/24 09:22:58;;;;;;;6.93;2.97;;;21.30;46.80;;;;;;5074542;28;20571;-72
2023/05/24 09:25:28;;;;;;;10.60;2.87;;;21.40;46.50;;;;;;5073818;28;20745;-72
2023/05/24 09:27:57;;;;;;;5.97;2.83;;;21.50;46.30;;;;;;5074381;28;20240;-72
2023/05/24 09:30:24;;;;;;;5.40;2.33;;;21.50;46.00;;;;;;5074449;28;20212;-72
2023/05/24 09:32:58;;;;;;;7.83;2.97;;;21.70;46.20;;;;;;5074114;28;20236;-72
2023/05/24 09:35:26;;;;;;;5.03;2.63;;;21.80;46.30;;;;;;5074517;28;20201;-72
2023/05/24 09:37:58;;;;;;;6.17;3.00;;;21.80;47.00;;;;;;5074229;28;20666;-73
2023/05/24 09:40:26;;;;;;;8.47;2.67;;;21.90;45.90;;;;;;5074221;28;20280;-73
2023/05/24 09:43:06;;;;;;;5.80;2.80;;;22.10;45.40;;;;;;5074045;28;20296;-73
2023/05/24 09:45:33;;;;;;;5.83;2.50;;;22.10;45.80;;;;;;5073916;28;20225;-72
2023/05/24 09:48:00;;;;;;;5.00;2.70;;;22.20;45.60;;;;;;5074223;28;20216;-73
2023/05/24 09:50:27;;;;;;;6.97;2.83;;;22.20;45.60;;;;;;5073773;28;20677;-72
2023/05/24 09:52:55;;;;;;;6.67;2.67;;;22.30;45.40;;;;;;5074198;28;20232;-73
2023/05/24 09:55:22;;;;;;;4.50;2.63;;;22.40;44.60;;;;;;5073677;28;20207;-72
2023/05/24 09:57:51;;;;;;;5.33;2.50;;;22.40;44.80;;;;;;5073841;28;20251;-73
2023/05/24 10:00:24;;;;;;;5.37;2.33;;;22.50;44.30;;;;;;5074162;28;20216;-73
2023/05/24 10:03:02;;;;;;;6.07;2.60;;;22.60;44.10;;;;;;5073529;28;20229;-73
2023/05/24 10:05:30;;;;;;;5.73;2.50;;;22.60;42.60;;;;;;5073848;28;20225;-73
2023/05/24 10:07:58;;;;;;;5.77;2.60;;;22.60;44.20;;;;;;5073800;28;20212;-72
2023/05/24 10:10:28;;;;;;;5.97;2.70;;;22.70;43.70;;;;;;5073713;28;20618;-73
2023/05/24 10:12:56;;;;;;;6.37;2.10;;;22.70;43.10;;;;;;5073565;28;20205;-73
2023/05/24 10:15:25;;;;;;;5.57;2.30;;;22.80;43.20;;;;;;5073344;28;20225;-73
2023/05/24 10:17:52;;;;;;;5.67;2.63;;;22.80;44.00;;;;;;5073716;28;20201;-72
2023/05/24 10:20:18;;;;;;;4.97;2.40;;;22.90;44.30;;;;;;5073254;28;20201;-74
2023/05/24 10:22:47;;;;;;;5.37;2.60;;;23.00;43.60;;;;;;5073306;28;20209;-74
2023/05/24 10:25:20;;;;;;;5.37;2.43;;;23.10;43.10;;;;;;5073010;28;20225;-73
2023/05/24 10:27:49;;;;;;;7.20;2.40;;;23.10;43.40;;;;;;5072948;28;20235;-73
2023/05/24 10:30:25;;;;;;;4.57;2.30;;;23.20;42.70;;;;;;5073481;28;20302;-74
2023/05/24 10:32:55;;;;;;;5.20;2.20;;;23.20;42.40;;;;;;5073004;28;20715;-73
2023/05/24 10:35:23;;;;;;;7.67;2.80;;;23.20;42.50;;;;;;5073633;28;20209;-73
2023/05/24 10:37:51;;;;;;;6.30;2.67;;;23.30;41.30;;;;;;5072954;28;20201;-73
2023/05/24 10:40:19;;;;;;;6.40;2.70;;;23.40;41.80;;;;;;5072715;28;20287;-74
2023/05/24 10:42:47;;;;;;;6.27;3.37;;;23.40;42.70;;;;;;5072889;28;20268;-73
2023/05/24 10:45:32;;;;;;;6.23;2.50;;;23.50;41.80;;;;;;5073098;28;20569;-74
2023/05/24 10:48:08;;;;;;;5.13;2.70;;;23.60;41.20;;;;;;5072946;28;20220;-73
2023/05/24 10:50:36;;;;;;;5.20;2.30;;;23.60;41.90;;;;;;5072776;28;20215;-72
2023/05/24 10:53:13;;;;;;;5.30;2.47;;;23.70;40.90;;;;;;5072411;28;20211;-74
2023/05/24 10:55:53;;;;;;;7.10;2.83;;;23.80;41.20;;;;;;5072775;28;20664;-73
2023/05/24 10:58:20;;;;;;;4.83;2.63;;;23.80;40.50;;;;;;5072773;28;20227;-73
2023/05/24 11:00:52;;;;;;;6.07;2.40;;;23.80;42.30;;;;;;5072674;28;20212;-74
2023/05/24 11:03:23;;;;;;;8.80;2.93;;;23.90;42.20;;;;;;5072397;28;20236;-73
2023/05/24 11:05:53;;;;;;;6.10;2.63;;;24.00;41.90;;;;;;5072864;28;20250;-73
2023/05/24 11:08:30;;;;;;;5.40;2.77;;;24.10;40.90;;;;;;5071666;28;20201;-73
2023/05/24 11:11:13;;;;;;;8.43;3.10;;;24.00;38.70;;;;;;5072793;28;20208;-73
2023/05/24 11:13:40;;;;;;;4.90;2.60;;;23.70;39.00;;;;;;5070335;28;20208;-74
2023/05/24 11:16:07;;;;;;;5.83;2.70;;;23.70;41.30;;;;;;5072429;28;20228;-73
2023/05/24 11:18:38;;;;;;;7.37;3.00;;;23.80;41.10;;;;;;5072451;28;20204;-73
2023/05/24 11:21:07;;;;;;;6.23;2.93;;;23.90;40.60;;;;;;5072357;28;20251;-74
2023/05/24 11:23:36;;;;;;;4.77;2.63;;;24.00;42.00;;;;;;5071983;28;20218;-73
2023/05/24 11:26:02;;;;;;;7.53;2.80;;;24.10;42.00;;;;;;5072051;28;20232;-73
2023/05/24 11:28:31;;;;;;;6.00;2.70;;;24.30;42.50;;;;;;5072041;28;20217;-73
2023/05/24 11:31:07;;;;;;;8.60;3.10;;;24.50;42.00;;;;;;5063211;28;20217;-73
2023/05/24 11:33:41;;;;;;;6.07;2.60;;;24.60;41.40;;;;;;5052193;28;20571;-72
2023/05/24 11:36:08;;;;;;;5.60;2.20;;;24.70;40.70;;;;;;5069897;28;20205;-73
2023/05/24 11:38:36;;;;;;;4.47;2.53;;;24.80;41.20;;;;;;5071655;28;20747;-72
2023/05/24 11:41:03;;;;;;;9.17;2.90;;;24.90;40.30;;;;;;5072272;28;20659;-73
2023/05/24 11:43:30;;;;;;;5.57;2.30;;;24.90;40.00;;;;;;5071958;28;20205;-73
2023/05/24 11:45:57;;;;;;;6.03;2.63;;;25.00;41.50;;;;;;5071940;28;20240;-72
2023/05/24 11:48:24;;;;;;;6.93;2.77;;;25.10;40.90;;;;;;5071964;28;20211;-73
2023/05/24 11:50:53;;;;;;;6.63;2.70;;;25.10;41.00;;;;;;5071795;28;20233;-72
2023/05/24 11:53:20;;;;;;;5.30;2.53;;;25.00;40.50;;;;;;5071663;28;20205;-73
2023/05/24 11:55:47;;;;;;;5.80;2.70;;;25.00;40.40;;;;;;5071981;28;20209;-72
2023/05/24 11:58:22;;;;;;;6.67;2.73;;;25.10;39.80;;;;;;5071999;28;20201;-73
2023/05/24 12:00:49;;;;;;;6.67;2.80;;;25.10;41.00;;;;;;5072139;28;20215;-73
2023/05/24 12:03:16;;;;;;;5.60;2.80;;;25.10;40.20;;;;;;5071711;28;20229;-73
2023/05/24 12:05:43;;;;;;;5.80;2.87;;;25.10;41.30;;;;;;5071462;28;20240;-73
2023/05/24 12:08:14;;;;;;;7.80;3.30;;;25.10;40.60;;;;;;5071656;28;20676;-73
2023/05/24 12:10:42;;;;;;;3.73;2.30;;;25.20;40.90;;;;;;5071972;28;20209;-73
2023/05/24 12:13:21;;;;;;;5.27;2.60;;;25.30;41.10;;;;;;5071695;28;20572;-73
2023/05/24 12:15:50;;;;;;;5.67;2.50;;;25.40;40.40;;;;;;5071685;28;20236;-73
2023/05/24 12:18:20;;;;;;;6.03;2.43;;;25.30;39.80;;;;;;5071534;28;20219;-72
2023/05/24 12:20:46;;;;;;;6.73;2.90;;;25.40;41.00;;;;;;5071455;28;20262;-73
2023/05/24 12:23:16;;;;;;;6.63;2.77;;;25.40;40.50;;;;;;5071571;28;20209;-73
2023/05/24 12:25:43;;;;;;;5.77;2.53;;;25.50;40.70;;;;;;5071297;28;20235;-73
2023/05/24 12:28:10;;;;;;;10.47;2.70;;;25.50;39.80;;;;;;5071464;28;20557;-72
2023/05/24 12:30:41;;;;;;;6.63;2.70;;;25.50;39.00;;;;;;5071668;28;20208;-72
2023/05/24 12:33:09;;;;;;;7.03;3.13;;;25.50;39.20;;;;;;5071333;28;20232;-72
2023/05/24 12:35:36;;;;;;;7.97;3.30;;;25.50;39.20;;;;;;5057765;28;20616;-74
2023/05/24 12:38:03;;;;;;;5.40;2.40;;;25.50;39.80;;;;;;5051151;28;20221;-71
2023/05/24 12:40:33;;;;;;;8.53;2.90;;;25.50;39.50;;;;;;5051016;28;20685;-73
2023/05/24 12:43:00;;;;;;;6.57;2.97;;;25.50;39.40;;;;;;5052790;28;20206;-73
2023/05/24 12:45:28;;;;;;;5.57;2.83;;;25.60;39.10;;;;;;5055233;28;20225;-72
2023/05/24 12:47:56;;;;;;;4.67;2.60;;;25.60;39.50;;;;;;5057541;28;20704;-72
2023/05/24 12:50:24;;;;;;;5.97;2.77;;;25.60;39.50;;;;;;5055082;28;20301;-73